M I D A S
Marine Information and Data Acquisition System
Tripno 1538 of the Zeeleeuw from 2008-08-18 07:18:26 to 2008-08-18 15:57:06
Back to CruiseResearch ActivitiesStationsMapUnderway DataData graphs

EquipmentUnitsComment
TimeDGPSUTC
LatitudeDGPSDM.mWGS84
LongitudeDGPSDM.mWGS84
HeadingGyrodeg 
SOGDGPSknotsSpeed over ground
COGDGPSdegCourse over ground
DepthEcho soundermeters200 kHz
Missing or incorrect values are displayed as -999
Navigation data collected by the RV Zeeleeuw from 2008-08-18 07:16:45 to 2008-08-18 15:57:41
Time Latitude Longitude Heading SOG COG Depth
2008-08-18 07:17:50 51°13.641 2°55.993 110.3 3.3 294 -999
2008-08-18 07:18:51 51°13.664 2°55.896 115.4 4.3 294 -999
2008-08-18 07:19:50 51°13.707 2°55.796 129.6 4.9 310 -999
2008-08-18 07:20:51 51°13.768 2°55.701 140.7 5.2 320 -999
2008-08-18 07:21:51 51°13.839 2°55.634 166.1 4.7 343 -999
2008-08-18 07:22:50 51°13.908 2°55.646 211.3 3.8 24 -999
2008-08-18 07:23:49 51°13.93 2°55.642 266.1 2.9 284 8.9
2008-08-18 07:24:47 51°13.991 2°55.54 323.9 7.3 324 9.5
2008-08-18 07:25:47 51°14.103 2°55.427 330.6 8.3 330 9.5
2008-08-18 07:26:47 51°14.219 2°55.308 323.7 8.3 321 8.8
2008-08-18 07:27:47 51°14.317 2°55.146 311.2 8.5 310 9.4
2008-08-18 07:28:47 51°14.386 2°54.955 286.9 8.6 283 9
2008-08-18 07:29:47 51°14.376 2°54.686 259.8 11 259 9.6
2008-08-18 07:30:47 51°14.316 2°54.405 250.3 11.4 249 7.8
2008-08-18 07:31:47 51°14.246 2°54.121 248 11.5 247 7.3
2008-08-18 07:32:47 51°14.168 2°53.84 246.6 11.7 246 7.6
2008-08-18 07:33:47 51°14.084 2°53.559 244.4 11.8 244 7.9
2008-08-18 07:34:47 51°14.003 2°53.274 246.7 11.9 246 8.2
2008-08-18 07:35:47 51°13.92 2°52.988 245.7 11.9 245 8.5
2008-08-18 07:36:47 51°13.835 2°52.702 245.4 11.9 245 8.8
2008-08-18 07:37:47 51°13.749 2°52.416 245 12 244 9.1
2008-08-18 07:38:47 51°13.663 2°52.13 246.5 12 246 9.2
2008-08-18 07:39:47 51°13.583 2°51.852 245.9 11 245 9.3
2008-08-18 07:40:47 51°13.522 2°51.657 238.2 6 240 9.7
2008-08-18 07:41:47 51°13.482 2°51.548 236.3 3.9 241 9.7
2008-08-18 07:42:47 51°13.455 2°51.473 233.6 2.7 242 9.7
2008-08-18 07:43:47 51°13.447 2°51.433 237.4 0.5 284 9.8
2008-08-18 07:44:47 51°13.446 2°51.418 261.6 0.7 252 9.8
2008-08-18 07:45:47 51°13.442 2°51.401 275.5 0.8 247 9.8
2008-08-18 07:46:47 51°13.437 2°51.382 287.2 0.8 245 9.9
2008-08-18 07:47:47 51°13.433 2°51.363 298.7 0.8 245 9.9
2008-08-18 07:48:47 51°13.427 2°51.342 307.3 0.9 245 9.9
2008-08-18 07:49:47 51°13.421 2°51.321 314.6 0.9 246 9.9
2008-08-18 07:50:47 51°13.416 2°51.3 316.1 0.9 252 9.9
2008-08-18 07:51:47 51°13.413 2°51.276 312.9 1.1 272 10
2008-08-18 07:52:47 51°13.407 2°51.197 254.1 5 245 10
2008-08-18 07:53:47 51°13.345 2°51.05 236.5 7.8 237 10
2008-08-18 07:54:47 51°13.247 2°50.815 235.7 12.1 237 10
2008-08-18 07:55:47 51°13.13 2°50.527 235.7 13.2 237 10
2008-08-18 07:56:47 51°13.009 2°50.234 235.8 13.3 236 10
2008-08-18 07:57:47 51°12.887 2°49.939 236.1 13.3 237 10.2
2008-08-18 07:58:46 51°12.77 2°49.649 236.5 13.2 238 10.2
2008-08-18 07:59:47 51°12.655 2°49.344 240.3 13.3 241 10.3
2008-08-18 08:00:47 51°12.551 2°49.034 241.3 13.3 242 10.4
2008-08-18 08:01:47 51°12.449 2°48.723 242.4 13.2 242 10.5
2008-08-18 08:02:47 51°12.354 2°48.406 247.8 13.3 248 10.7
2008-08-18 08:03:47 51°12.269 2°48.08 247.5 13.3 248 10.9
2008-08-18 08:04:47 51°12.181 2°47.758 246.8 13.3 247 11.1
2008-08-18 08:05:47 51°12.092 2°47.435 246.5 13.3 246 11.2
2008-08-18 08:06:47 51°12.002 2°47.114 244.5 13.3 245 11.2
2008-08-18 08:07:47 51°11.917 2°46.792 252.6 13.2 253 11.4
2008-08-18 08:08:47 51°11.868 2°46.449 258.3 13.3 257 11.6
2008-08-18 08:09:47 51°11.819 2°46.106 257.6 13.3 257 11.7
2008-08-18 08:10:47 51°11.769 2°45.761 257.7 13.4 257 11.7
2008-08-18 08:11:47 51°11.732 2°45.413 264.2 13.3 263 11.7
2008-08-18 08:12:47 51°11.707 2°45.066 264.5 13.1 263 11.6
2008-08-18 08:13:47 51°11.683 2°44.722 265.2 13 264 11.4
2008-08-18 08:14:47 51°11.662 2°44.382 265 12.9 265 11.1
2008-08-18 08:15:47 51°11.64 2°44.044 264.8 12.8 262 10.7
2008-08-18 08:16:47 51°11.608 2°43.71 262 12.8 261 10.3
2008-08-18 08:17:47 51°11.568 2°43.377 260.1 12.8 260 10
2008-08-18 08:18:47 51°11.521 2°43.046 256.9 12.9 256 10
2008-08-18 08:19:47 51°11.469 2°42.715 256.7 12.8 256 9.9
2008-08-18 08:20:47 51°11.381 2°42.458 217.6 9.4 220 10.4
2008-08-18 08:21:47 51°11.283 2°42.324 217.1 6.8 222 10.7
2008-08-18 08:22:47 51°11.202 2°42.212 212.9 6.2 218 10.9
2008-08-18 08:23:47 51°11.128 2°42.129 203.9 4.4 214 11.1
2008-08-18 08:24:47 51°11.098 2°42.09 179.2 1.1 291 11.2
2008-08-18 08:25:50 51°11.109 2°42.063 170 1.1 301 11.2
2008-08-18 08:26:47 51°11.119 2°42.038 161.7 1.2 304 11.2
2008-08-18 08:27:47 51°11.131 2°42.009 145.7 1.3 300 11.1
2008-08-18 08:28:47 51°11.138 2°41.981 124.1 0.3 200 11
2008-08-18 08:29:47 51°11.068 2°42.02 159.6 7.7 166 11.3
2008-08-18 08:30:47 51°10.926 2°42.092 151.8 9.4 159 11.6
2008-08-18 08:31:47 51°10.78 2°42.188 149.2 9.6 157 11.2
2008-08-18 08:32:47 51°10.638 2°42.299 146.4 9.5 154 10.3
2008-08-18 08:33:47 51°10.497 2°42.412 144.3 9.5 152 8.9
2008-08-18 08:34:47 51°10.383 2°42.504 147.3 5.6 158 8.1
2008-08-18 08:35:47 51°10.318 2°42.54 141.8 3 156 7.9
2008-08-18 08:36:47 51°10.281 2°42.59 121.1 3.2 133 7.8
2008-08-18 08:37:47 51°10.238 2°42.667 119.1 4.4 127 7.8
2008-08-18 08:38:47 51°10.189 2°42.756 125 3.9 135 7.9
2008-08-18 08:39:47 51°10.151 2°42.807 134.4 1.7 159 8.1
2008-08-18 08:40:47 51°10.138 2°42.804 136.4 0.6 212 8.1
2008-08-18 08:41:47 51°10.133 2°42.796 125.4 0.4 240 8.1
2008-08-18 08:42:47 51°10.131 2°42.786 114.6 0.4 250 8.1
2008-08-18 08:43:47 51°10.129 2°42.774 105.7 0.5 259 8.1
2008-08-18 08:44:47 51°10.128 2°42.76 96.7 0.6 267 8.2
2008-08-18 08:45:47 51°10.13 2°42.761 73.2 2.2 64 8.1
2008-08-18 08:46:47 51°10.192 2°42.751 326.6 5.8 308 7.9
2008-08-18 08:47:47 51°10.202 2°42.549 272.4 10.4 271 7.8
2008-08-18 08:48:47 51°10.203 2°42.237 271 12.3 271 7.6
2008-08-18 08:49:47 51°10.211 2°41.907 274 12.6 272 8
2008-08-18 08:50:47 51°10.229 2°41.571 277.2 12.8 275 8.6
2008-08-18 08:51:47 51°10.244 2°41.232 273.5 12.9 272 9.4
2008-08-18 08:52:47 51°10.251 2°40.892 274 12.9 272 10.1
2008-08-18 08:53:47 51°10.259 2°40.55 273.9 12.9 272 10.7
2008-08-18 08:54:47 51°10.269 2°40.208 274.9 13 273 11.4
2008-08-18 08:55:47 51°10.279 2°39.864 275.1 13 273 12.3
2008-08-18 08:56:47 51°10.291 2°39.52 274.9 13 273 13.3
2008-08-18 08:57:47 51°10.301 2°39.176 274.9 13 273 14.1
2008-08-18 08:58:47 51°10.311 2°38.831 275.1 13.1 273 15.1
2008-08-18 08:59:47 51°10.32 2°38.485 275.1 13.1 272 15
2008-08-18 09:00:47 51°10.329 2°38.137 276.5 13.2 273 16
2008-08-18 09:01:47 51°10.346 2°37.786 277.9 13.3 274 17
2008-08-18 09:02:47 51°10.362 2°37.44 278.7 12.9 277 17
2008-08-18 09:03:47 51°10.383 2°37.101 281.4 12.7 282 15.6
2008-08-18 09:04:47 51°10.466 2°36.807 310.9 11.9 308 9.5
2008-08-18 09:05:47 51°10.621 2°36.645 344.3 11.1 344 8.8
2008-08-18 09:06:47 51°10.8 2°36.661 16.8 10.9 13 10.3
2008-08-18 09:07:47 51°10.98 2°36.707 12.5 10.9 7 11.4
2008-08-18 09:08:47 51°11.16 2°36.745 12.6 10.9 8 11.8
2008-08-18 09:09:47 51°11.342 2°36.777 11.2 11 5 11.8
2008-08-18 09:10:47 51°11.525 2°36.799 9.7 11.1 4 11.3
2008-08-18 09:11:47 51°11.708 2°36.831 11.5 11.1 7 10.4
2008-08-18 09:12:47 51°11.892 2°36.86 10.5 11 4 10
2008-08-18 09:13:47 51°12.076 2°36.871 6.7 11.1 2 9.4
2008-08-18 09:14:47 51°12.259 2°36.89 8.6 11 3 9.3
2008-08-18 09:15:47 51°12.442 2°36.91 10.2 11.1 4 9.5
2008-08-18 09:16:47 51°12.626 2°36.936 12.1 11.1 7 9
2008-08-18 09:17:47 51°12.808 2°36.976 14.2 11 8 8.4
2008-08-18 09:18:47 51°12.99 2°37.008 10.1 11 4 7.5
2008-08-18 09:19:47 51°13.175 2°37.03 10.1 11.2 7 8.1
2008-08-18 09:20:47 51°13.359 2°37.057 9.7 11.1 1 7.9
2008-08-18 09:21:47 51°13.542 2°36.973 344.4 12.2 338 13.6
2008-08-18 09:22:47 51°13.73 2°36.873 355.9 11.7 349 18.6
2008-08-18 09:23:47 51°13.921 2°36.833 1.5 11.6 353 18.5
2008-08-18 09:24:47 51°14.112 2°36.797 1.2 11.5 352 13.7
2008-08-18 09:25:47 51°14.3 2°36.766 1.4 11.3 355 11.2
2008-08-18 09:26:47 51°14.487 2°36.743 4.2 11.3 357 9.6
2008-08-18 09:27:47 51°14.676 2°36.727 4.6 11.3 358 9
2008-08-18 09:28:47 51°14.867 2°36.714 4.3 11.5 359 12.5
2008-08-18 09:29:47 51°15.058 2°36.711 5.6 11.5 -999 13.2
2008-08-18 09:30:47 51°15.248 2°36.711 7.5 11.4 2 12.9
2008-08-18 09:31:47 51°15.437 2°36.733 8.7 11.4 2 12.6
2008-08-18 09:32:47 51°15.628 2°36.74 7 11.5 2 14.1
2008-08-18 09:33:47 51°15.82 2°36.747 6.7 11.5 1 17.1
2008-08-18 09:34:47 51°16.01 2°36.754 7.2 11.3 -999 23
2008-08-18 09:35:47 51°16.195 2°36.77 10.5 11.1 4 26.2
2008-08-18 09:36:47 51°16.379 2°36.782 11.4 10.9 6 26.2
2008-08-18 09:37:47 51°16.524 2°36.803 14.8 5.7 5 26
2008-08-18 09:38:47 51°16.584 2°36.817 37.5 1.7 18 25.8
2008-08-18 09:39:47 51°16.597 2°36.809 29 0.8 321 25.8
2008-08-18 09:40:47 51°16.604 2°36.797 44.9 0.5 294 25.8
2008-08-18 09:41:47 51°16.604 2°36.783 61.6 0.6 247 25.9
2008-08-18 09:42:47 51°16.599 2°36.765 75.7 0.9 244 25.8
2008-08-18 09:43:47 51°16.592 2°36.743 84.5 1 246 26
2008-08-18 09:44:47 51°16.585 2°36.717 91.3 1 247 26.1
2008-08-18 09:45:47 51°16.579 2°36.692 96.4 1.1 250 26.2
2008-08-18 09:46:47 51°16.572 2°36.669 90.4 0.4 201 26.3
2008-08-18 09:47:47 51°16.588 2°36.689 23.1 2.5 358 26.1
2008-08-18 09:48:47 51°16.649 2°36.604 327.4 8 313 26
2008-08-18 09:49:47 51°16.753 2°36.397 321.4 10.7 313 26
2008-08-18 09:50:47 51°16.894 2°36.195 328.1 11.8 320 26.7
2008-08-18 09:51:47 51°17.045 2°35.994 330.1 11.8 321 22.1
2008-08-18 09:52:47 51°17.197 2°35.794 329.2 11.8 322 16.3
2008-08-18 09:53:47 51°17.348 2°35.595 326.5 11.8 319 12.2
2008-08-18 09:54:47 51°17.493 2°35.379 324.3 12 317 10.1
2008-08-18 09:55:47 51°17.633 2°35.147 318 12.1 313 11
2008-08-18 09:56:47 51°17.768 2°34.904 317.2 12.3 311 17.5
2008-08-18 09:57:47 51°17.903 2°34.656 316.4 12.4 309 23.8
2008-08-18 09:58:47 51°18.029 2°34.392 313.8 12.5 307 27.7
2008-08-18 09:59:47 51°18.156 2°34.132 314.1 12.5 307 27
2008-08-18 10:00:47 51°18.284 2°33.871 313 12.4 306 24
2008-08-18 10:01:48 51°18.408 2°33.602 312.4 12.3 307 17.2
2008-08-18 10:02:47 51°18.529 2°33.344 312.5 12.4 306 19.8
2008-08-18 10:03:47 51°18.652 2°33.084 311.4 12.2 306 25.3
2008-08-18 10:04:45 51°18.766 2°32.826 310.4 12.3 303 28.2
2008-08-18 10:05:45 51°18.879 2°32.553 310.3 12.2 305 29.5
2008-08-18 10:06:45 51°18.993 2°32.283 311.3 12.3 305 30.2
2008-08-18 10:07:45 51°19.112 2°32.018 313.8 12.3 305 30.3
2008-08-18 10:08:45 51°19.23 2°31.755 312.7 12.2 305 30.2
2008-08-18 10:09:45 51°19.347 2°31.492 312.9 12.1 305 30
2008-08-18 10:10:45 51°19.462 2°31.223 313.3 12.3 304 30
2008-08-18 10:11:45 51°19.579 2°30.962 313 11.5 305 26.1
2008-08-18 10:12:45 51°19.684 2°30.725 313.4 10.8 306 19.8
2008-08-18 10:13:45 51°19.793 2°30.497 314.5 10.8 308 17.1
2008-08-18 10:14:45 51°19.903 2°30.291 317.1 9.1 311 12.5
2008-08-18 10:15:45 51°19.975 2°30.146 313.7 5.7 307 13.9
2008-08-18 10:16:45 51°20.01 2°30.049 298.6 3.3 293 12
2008-08-18 10:17:45 51°20.021 2°29.987 282.8 1.8 283 14.5
2008-08-18 10:18:45 51°20.028 2°29.947 273.5 1.4 281 12.1
2008-08-18 10:19:45 51°20.032 2°29.915 266.1 1.1 281 12.4
2008-08-18 10:20:45 51°20.037 2°29.888 261.9 1 289 14.7
2008-08-18 10:21:45 51°20.043 2°29.87 265.1 0.8 301 16.7
2008-08-18 10:22:45 51°20.046 2°29.831 250.6 2.1 265 20.3
2008-08-18 10:23:45 51°20.015 2°29.724 235.1 6.4 239 26.8
2008-08-18 10:24:45 51°19.979 2°29.556 283.2 6.3 289 30.3
2008-08-18 10:25:45 51°20.062 2°29.52 26.8 6 27 30.9
2008-08-18 10:26:45 51°20.137 2°29.684 66.4 9.1 66 29.3
2008-08-18 10:27:45 51°20.206 2°29.913 64.9 9.7 64 25.8
2008-08-18 10:28:45 51°20.278 2°30.147 64.1 9.7 64 13.2
2008-08-18 10:29:45 51°20.355 2°30.406 64.3 11.5 65 13.6
2008-08-18 10:30:45 51°20.436 2°30.681 65.6 11.6 66 13.1
2008-08-18 10:31:45 51°20.508 2°30.962 66 11.2 65 13.6
2008-08-18 10:32:45 51°20.582 2°31.235 65.2 11.4 67 14.3
2008-08-18 10:33:45 51°20.655 2°31.509 63.7 11.3 66 18.1
2008-08-18 10:34:45 51°20.727 2°31.786 64.1 11.4 68 21.6
2008-08-18 10:35:45 51°20.798 2°32.067 66.4 11.4 69 25.1
2008-08-18 10:36:45 51°20.87 2°32.346 64.8 11.4 68 29.6
2008-08-18 10:37:45 51°20.945 2°32.627 65.7 11.5 67 29.8
2008-08-18 10:38:46 51°21.021 2°32.913 64.5 11.7 66 30.5
2008-08-18 10:39:45 51°21.097 2°33.185 64.5 11.5 68 30.4
2008-08-18 10:40:46 51°21.173 2°33.472 65.3 11.6 64 31.4
2008-08-18 10:41:45 51°21.249 2°33.753 64.3 11.6 68 33.3
2008-08-18 10:42:46 51°21.328 2°34.041 64.5 11.6 67 32.6
2008-08-18 10:43:45 51°21.404 2°34.325 65 12 67 30
2008-08-18 10:44:46 51°21.483 2°34.616 65.3 11.8 66 34.1
2008-08-18 10:45:45 51°21.559 2°34.896 65.2 11.7 67 31.7
2008-08-18 10:46:45 51°21.636 2°35.183 65.4 11.8 67 32.2
2008-08-18 10:47:45 51°21.712 2°35.471 66.2 11.6 67 31.2
2008-08-18 10:48:45 51°21.789 2°35.754 65.1 11.7 65 31.9
2008-08-18 10:49:45 51°21.866 2°36.041 67.6 11.8 69 32
2008-08-18 10:50:45 51°21.944 2°36.327 65.2 11.8 67 32.1
2008-08-18 10:51:45 51°22.023 2°36.611 65.4 11.8 67 33.1
2008-08-18 10:52:45 51°22.1 2°36.898 66.5 11.9 68 31.1
2008-08-18 10:53:45 51°22.179 2°37.188 64.8 11.8 65 30.8
2008-08-18 10:54:46 51°22.272 2°37.464 51.6 11.6 49 31
2008-08-18 10:55:45 51°22.437 2°37.595 8.6 11.5 6 31.4
2008-08-18 10:56:46 51°22.632 2°37.574 358.7 11.6 357 30.8
2008-08-18 10:57:45 51°22.824 2°37.581 3.2 11.9 4 30
2008-08-18 10:58:46 51°23.023 2°37.607 4.8 11.8 7 28.3
2008-08-18 10:59:45 51°23.214 2°37.629 5.1 11.8 3 25.5
2008-08-18 11:00:46 51°23.41 2°37.653 3.5 11.7 2 25.1
2008-08-18 11:01:45 51°23.555 2°37.81 60.1 11.3 66 25.5
2008-08-18 11:02:46 51°23.61 2°38.115 72.5 12.1 71 21.3
2008-08-18 11:03:46 51°23.666 2°38.424 71 12 73 26.1
2008-08-18 11:04:45 51°23.708 2°38.735 78.2 12.1 81 26.5
2008-08-18 11:05:45 51°23.741 2°39.051 78.4 12.1 79 27.7
2008-08-18 11:06:45 51°23.775 2°39.365 78.5 11.9 79 27.7
2008-08-18 11:07:45 51°23.812 2°39.676 78.3 11.9 78 28.3
2008-08-18 11:08:45 51°23.869 2°39.98 68.1 11.9 68 28.5
2008-08-18 11:09:45 51°23.944 2°40.277 67.2 11.8 68 28.8
2008-08-18 11:10:45 51°24.021 2°40.572 66.6 12 68 28.2
2008-08-18 11:11:45 51°24.099 2°40.866 66.1 11.9 71 28.4
2008-08-18 11:12:46 51°24.177 2°41.167 66.4 11.8 65 28.2
2008-08-18 11:13:45 51°24.252 2°41.455 66.2 12 67 28.9
2008-08-18 11:14:46 51°24.329 2°41.756 67.3 12.1 65 25.4
2008-08-18 11:15:45 51°24.4 2°42.052 69.3 12.1 69 28
2008-08-18 11:16:46 51°24.477 2°42.357 67.4 12 66 22.5
2008-08-18 11:17:45 51°24.552 2°42.649 66.1 12.2 66 25.3
2008-08-18 11:18:46 51°24.63 2°42.954 67.4 12.2 68 23.4
2008-08-18 11:19:46 51°24.706 2°43.26 68.1 12.1 68 22.2
2008-08-18 11:20:46 51°24.782 2°43.562 68.1 12.2 68 22.9
2008-08-18 11:21:46 51°24.86 2°43.865 67.8 12.1 69 24.8
2008-08-18 11:22:45 51°24.937 2°44.16 65.7 12.3 66 22.7
2008-08-18 11:23:45 51°25.015 2°44.461 67.4 12.2 66 25.7
2008-08-18 11:24:45 51°25.093 2°44.762 66.3 12.4 67 26.8
2008-08-18 11:25:45 51°25.172 2°45.065 67 12.5 69 25
2008-08-18 11:26:45 51°25.251 2°45.366 66.7 12.2 66 27.2
2008-08-18 11:27:45 51°25.329 2°45.672 67.9 12.4 70 26.8
2008-08-18 11:28:46 51°25.411 2°45.98 66.8 12.3 66 26.3
2008-08-18 11:29:45 51°25.49 2°46.281 66.9 12.6 68 26.2
2008-08-18 11:30:46 51°25.569 2°46.594 68 12.5 69 24.9
2008-08-18 11:31:45 51°25.649 2°46.895 67.6 12.5 67 24.4
2008-08-18 11:32:46 51°25.725 2°47.206 70.5 12.4 74 23.4
2008-08-18 11:33:46 51°25.784 2°47.523 73.8 12.5 74 25.3
2008-08-18 11:34:46 51°25.839 2°47.84 73.9 11.4 73 24.7
2008-08-18 11:35:46 51°25.883 2°48.085 71.7 9 73 24.8
2008-08-18 11:36:46 51°25.93 2°48.272 65.3 6.2 65 24.8
2008-08-18 11:37:46 51°25.965 2°48.389 69.5 3.8 67 25.1
2008-08-18 11:38:46 51°25.981 2°48.462 84.1 2.3 73 24.9
2008-08-18 11:39:46 51°25.991 2°48.499 98.2 1.4 66 25.1
2008-08-18 11:40:45 51°26.001 2°48.527 103.7 1.2 59 25
2008-08-18 11:41:45 51°26.011 2°48.552 105.1 1.1 54 25.1
2008-08-18 11:42:46 51°26.024 2°48.576 102.7 1.1 48 25.4
2008-08-18 11:43:45 51°26.037 2°48.597 100.9 1.2 40 25.5
2008-08-18 11:44:46 51°26.051 2°48.624 101.4 1.4 50 25.5
2008-08-18 11:45:45 51°26.063 2°48.663 87.5 2.6 75 25.4
2008-08-18 11:46:46 51°26.09 2°48.804 75 8.4 75 25.1
2008-08-18 11:47:45 51°26.138 2°49.071 75.4 12.1 73 25.2
2008-08-18 11:48:46 51°26.193 2°49.396 76.1 12.7 77 24.8
2008-08-18 11:49:45 51°26.249 2°49.715 74.6 12.7 75 24.6
2008-08-18 11:50:46 51°26.303 2°50.048 77.6 12.7 81 24.9
2008-08-18 11:51:46 51°26.352 2°50.382 77.9 12.8 76 25.1
2008-08-18 11:52:46 51°26.403 2°50.717 75.8 13 74 25
2008-08-18 11:53:46 51°26.452 2°51.051 77.9 12.7 79 25.6
2008-08-18 11:54:45 51°26.502 2°51.376 75.4 12.9 74 27.3
2008-08-18 11:55:46 51°26.551 2°51.715 78.6 12.9 77 27.7
2008-08-18 11:56:46 51°26.598 2°52.052 77.8 12.9 78 27.5
2008-08-18 11:57:46 51°26.646 2°52.384 76.8 11.8 77 28.6
2008-08-18 11:58:46 51°26.658 2°52.572 96.6 4.9 87 29.7
2008-08-18 11:59:45 51°26.662 2°52.67 98.2 3.2 83 29.7
2008-08-18 12:00:46 51°26.675 2°52.759 80.3 4.2 72 30.4
2008-08-18 12:01:45 51°26.73 2°52.895 55.9 7.4 58 30.5
2008-08-18 12:02:46 51°26.798 2°53.107 70.3 10.1 68 30.7
2008-08-18 12:03:45 51°26.856 2°53.401 72.9 12.8 74 29.9
2008-08-18 12:04:46 51°26.914 2°53.742 77.3 13.3 79 28.8
2008-08-18 12:05:45 51°26.963 2°54.08 78.4 13.4 76 25.2
2008-08-18 12:06:46 51°27.015 2°54.43 78.9 13.3 76 27.3
2008-08-18 12:07:46 51°27.063 2°54.774 78.3 13.2 77 29.9
2008-08-18 12:08:45 51°27.114 2°55.113 78.2 13.4 80 29.9
2008-08-18 12:09:46 51°27.166 2°55.463 75.9 13.4 77 30.7
2008-08-18 12:10:45 51°27.218 2°55.799 77.3 13 77 30.2
2008-08-18 12:11:46 51°27.274 2°56.145 77.7 13.1 76 30.1
2008-08-18 12:12:45 51°27.327 2°56.481 76.4 13.3 73 27.8
2008-08-18 12:13:46 51°27.378 2°56.829 77.4 13.4 75 23.4
2008-08-18 12:14:46 51°27.429 2°57.126 72.2 8.4 70 28.8
2008-08-18 12:15:46 51°27.478 2°57.275 62.1 5.4 60 28.2
2008-08-18 12:16:46 51°27.516 2°57.388 64.5 4.7 60 29
2008-08-18 12:17:45 51°27.556 2°57.494 59.3 4.8 58 28.5
2008-08-18 12:18:46 51°27.599 2°57.605 61.8 4.8 59 28.3
2008-08-18 12:19:45 51°27.64 2°57.713 61.9 4.9 58 28.2
2008-08-18 12:20:45 51°27.681 2°57.824 61.9 4.8 59 28
2008-08-18 12:21:46 51°27.724 2°57.936 59.8 4.9 57 27.9
2008-08-18 12:22:46 51°27.768 2°58.047 60.6 4.9 58 28
2008-08-18 12:23:46 51°27.812 2°58.158 60.9 5 58 27.4
2008-08-18 12:24:45 51°27.854 2°58.268 59.3 5 58 27.4
2008-08-18 12:25:46 51°27.899 2°58.378 57.9 4.4 56 27.5
2008-08-18 12:26:45 51°27.925 2°58.431 86.7 1.6 36 27.7
2008-08-18 12:27:46 51°27.948 2°58.466 85.6 2 46 27.7
2008-08-18 12:28:46 51°27.972 2°58.509 89.8 2.2 50 27.9
2008-08-18 12:29:45 51°27.994 2°58.554 96.6 2.3 51 27.6
2008-08-18 12:30:46 51°28.017 2°58.603 103.3 2.3 51 27.6
2008-08-18 12:31:46 51°28.037 2°58.661 101.8 3.2 75 27.6
2008-08-18 12:32:46 51°28.054 2°58.851 91.4 10.1 85 23.1
2008-08-18 12:33:46 51°28.068 2°59.175 88.2 13.1 82 23.9
2008-08-18 12:34:45 51°28.091 2°59.517 87.3 13 82 22.3
2008-08-18 12:35:45 51°28.11 2°59.866 90.6 13.2 87 21.3
2008-08-18 12:36:46 51°28.122 3°0.222 90.6 13.1 87 21.8
2008-08-18 12:37:45 51°28.134 3°0.566 90.5 13.2 88 23
2008-08-18 12:38:46 51°28.142 3°0.923 93.3 13.1 90 23.5
2008-08-18 12:39:45 51°28.145 3°1.268 96.4 13 92 25.1
2008-08-18 12:40:46 51°28.143 3°1.626 93.9 13.2 91 25.7
2008-08-18 12:41:46 51°28.14 3°1.978 99.2 13.2 92 25.8
2008-08-18 12:42:46 51°28.123 3°2.328 101 13.3 93 25.6
2008-08-18 12:43:46 51°28.102 3°2.68 99.5 13.3 95 25.2
2008-08-18 12:44:46 51°28.082 3°3.028 101.8 13.2 96 24.5
2008-08-18 12:45:46 51°28.074 3°3.367 91.4 11.5 84 23.3
2008-08-18 12:46:46 51°28.134 3°3.546 37.7 5.8 43 23.2
2008-08-18 12:47:45 51°28.209 3°3.589 333 5 353 23.6
2008-08-18 12:48:46 51°28.289 3°3.553 314.8 3.7 347 24.3
2008-08-18 12:49:45 51°28.326 3°3.555 286.5 2.1 21 24.6
2008-08-18 12:50:45 51°28.354 3°3.584 285.1 2.2 38 24.7
2008-08-18 12:51:45 51°28.382 3°3.623 280.8 2.2 43 24.6
2008-08-18 12:52:46 51°28.41 3°3.668 280.7 2.5 47 24.4
2008-08-18 12:53:46 51°28.439 3°3.717 287.4 2.5 49 24.4
2008-08-18 12:54:46 51°28.466 3°3.773 299.7 2.8 54 24.6
2008-08-18 12:55:46 51°28.499 3°3.793 277.9 2.1 323 24.7
2008-08-18 12:56:46 51°28.484 3°3.769 196.5 3 163 24.7
2008-08-18 12:57:46 51°28.416 3°3.902 144.2 9.3 133 24
2008-08-18 12:58:46 51°28.278 3°4.094 149.7 11.6 143 22.6
2008-08-18 12:59:46 51°28.127 3°4.299 145.9 12.1 137 20.4
2008-08-18 13:00:46 51°27.979 3°4.518 146.5 12 138 18.4
2008-08-18 13:01:46 51°27.829 3°4.734 145.5 12.1 137 16.1
2008-08-18 13:02:46 51°27.68 3°4.953 146 12.1 139 16.6
2008-08-18 13:03:46 51°27.531 3°5.169 145.2 12 137 17
2008-08-18 13:04:46 51°27.394 3°5.409 136.2 12.3 128 16.7
2008-08-18 13:05:46 51°27.269 3°5.67 132 12.4 125 16.1
2008-08-18 13:06:46 51°27.151 3°5.942 133.5 12.4 123 15.3
2008-08-18 13:07:46 51°27.03 3°6.21 133.4 12.4 128 15
2008-08-18 13:08:46 51°26.911 3°6.479 133.3 12.4 123 14.7
2008-08-18 13:09:46 51°26.79 3°6.746 132.7 12.4 125 14.1
2008-08-18 13:10:46 51°26.671 3°7.014 134.5 12.3 127 13.9
2008-08-18 13:11:46 51°26.547 3°7.273 134.9 12.2 128 13.5
2008-08-18 13:12:46 51°26.42 3°7.529 136.8 12.3 127 12.2
2008-08-18 13:13:46 51°26.293 3°7.784 136.3 12.3 129 12
2008-08-18 13:14:46 51°26.222 3°7.987 105.6 6.7 90 12.1
2008-08-18 13:15:46 51°26.277 3°8.12 35.5 6.2 39 12.2
2008-08-18 13:16:46 51°26.369 3°8.218 27.8 6.9 33 12.7
2008-08-18 13:17:46 51°26.443 3°8.308 23.9 4.1 36 13.1
2008-08-18 13:18:46 51°26.477 3°8.353 4.7 1.7 58 13.3
2008-08-18 13:19:46 51°26.496 3°8.392 359.7 2 49 13.3
2008-08-18 13:20:46 51°26.521 3°8.43 352 2.2 41 13.2
2008-08-18 13:21:46 51°26.548 3°8.464 342.4 2.1 37 13.1
2008-08-18 13:22:46 51°26.577 3°8.495 332.5 2 36 13
2008-08-18 13:23:46 51°26.632 3°8.528 15.2 4.9 31 13
2008-08-18 13:24:46 51°26.667 3°8.649 104.7 5.2 94 13.2
2008-08-18 13:25:45 51°26.603 3°8.781 147 9.3 138 13.3
2008-08-18 13:26:46 51°26.482 3°9.006 135.2 11.5 127 12.7
2008-08-18 13:27:46 51°26.35 3°9.231 141.6 11.8 135 12.2
2008-08-18 13:28:45 51°26.213 3°9.448 140.6 11.8 135 11.5
2008-08-18 13:29:46 51°26.07 3°9.67 141 11.8 136 11
2008-08-18 13:30:45 51°25.931 3°9.885 141.5 11.8 135 10.5
2008-08-18 13:31:46 51°25.786 3°10.102 142.3 11.7 136 10.1
2008-08-18 13:32:45 51°25.645 3°10.312 142.2 11.8 136 10
2008-08-18 13:33:46 51°25.496 3°10.525 142 11.8 139 10.1
2008-08-18 13:34:46 51°25.351 3°10.738 141.6 11.9 137 10.8
2008-08-18 13:35:46 51°25.206 3°10.953 142.2 11.9 136 11.7
2008-08-18 13:36:46 51°25.061 3°11.17 141.6 12 137 12.4
2008-08-18 13:37:45 51°24.93 3°11.367 143.2 8.2 134 13.5
2008-08-18 13:38:46 51°24.867 3°11.473 157.7 3.9 131 14.2
2008-08-18 13:39:45 51°24.841 3°11.54 159.8 2.7 114 14.4
2008-08-18 13:40:45 51°24.789 3°11.587 193.2 5.9 180 14.5
2008-08-18 13:41:46 51°24.652 3°11.565 194.9 8.9 187 15.4
2008-08-18 13:42:46 51°24.49 3°11.532 192.5 10.9 183 18.3
2008-08-18 13:43:46 51°24.304 3°11.58 171.1 11.8 159 -999
2008-08-18 13:44:46 51°24.127 3°11.736 158 12.2 148 19.3
2008-08-18 13:45:46 51°23.951 3°11.895 161.2 12 154 16.2
2008-08-18 13:46:45 51°23.776 3°12.037 160.7 12 152 14.5
2008-08-18 13:47:46 51°23.596 3°12.183 160.3 12 152 14.1
2008-08-18 13:48:45 51°23.42 3°12.32 162.4 12 153 14.3
2008-08-18 13:49:46 51°23.237 3°12.453 167.9 11.8 159 14
2008-08-18 13:50:46 51°23.055 3°12.578 166.1 11.9 157 14
2008-08-18 13:51:46 51°22.87 3°12.704 166.1 12 158 14.6
2008-08-18 13:52:46 51°22.686 3°12.826 166.3 12.1 157 14.9
2008-08-18 13:53:46 51°22.536 3°12.935 167.6 7.6 151 15.2
2008-08-18 13:54:46 51°22.496 3°13.086 88.5 6.4 83 15
2008-08-18 13:55:46 51°22.552 3°13.199 2.5 4.6 26 14.5
2008-08-18 13:56:46 51°22.594 3°13.246 342.3 2.4 53 14.4
2008-08-18 13:57:46 51°22.617 3°13.297 327.1 2.2 57 14.1
2008-08-18 13:58:46 51°22.635 3°13.347 320.8 2.2 61 14.1
2008-08-18 13:59:46 51°22.651 3°13.397 316 2 63 13.9
2008-08-18 14:00:46 51°22.668 3°13.443 306.6 1.7 42 13.7
2008-08-18 14:01:46 51°22.662 3°13.411 232.3 3.5 224 13.7
2008-08-18 14:02:46 51°22.619 3°13.237 254.8 9 256 14.1
2008-08-18 14:03:46 51°22.582 3°12.99 257.3 9.7 259 14.8
2008-08-18 14:04:46 51°22.548 3°12.735 256.1 9.8 257 15.5
2008-08-18 14:05:46 51°22.509 3°12.482 254.4 9.8 256 16.3
2008-08-18 14:06:46 51°22.471 3°12.229 256 9.8 257 16.8
2008-08-18 14:07:46 51°22.433 3°12.003 253.2 7.4 255 17.6
2008-08-18 14:08:46 51°22.405 3°11.828 253.2 6.6 256 18
2008-08-18 14:09:46 51°22.381 3°11.656 255 6.6 258 18
2008-08-18 14:10:46 51°22.359 3°11.484 255.4 6.6 261 18
2008-08-18 14:11:46 51°22.345 3°11.328 266 4.3 281 18.4
2008-08-18 14:12:46 51°22.386 3°11.256 293.4 3.5 320 18.1
2008-08-18 14:13:46 51°22.418 3°11.202 274.5 2.3 304 17.9
2008-08-18 14:14:46 51°22.435 3°11.176 270.1 1.1 347 17.9
2008-08-18 14:15:46 51°22.453 3°11.179 269 1.1 17 18
2008-08-18 14:16:46 51°22.472 3°11.194 267.8 1.4 31 17.9
2008-08-18 14:17:46 51°22.491 3°11.217 271.2 1.6 38 17.8
2008-08-18 14:18:46 51°22.512 3°11.247 275.3 1.7 44 17.9
2008-08-18 14:19:46 51°22.531 3°11.28 276 1.7 49 17.8
2008-08-18 14:20:46 51°22.549 3°11.316 274.5 1.8 50 17.7
2008-08-18 14:21:46 51°22.565 3°11.326 262 1.2 302 17.6
2008-08-18 14:22:46 51°22.565 3°11.271 252.2 2.7 263 17.6
2008-08-18 14:23:46 51°22.553 3°11.175 252 5.4 256 17.5
2008-08-18 14:24:46 51°22.524 3°10.973 253.2 9.6 255 17.6
2008-08-18 14:25:46 51°22.475 3°10.71 249.7 10.5 251 18.2
2008-08-18 14:26:46 51°22.419 3°10.445 249 10.6 250 20.1
2008-08-18 14:27:46 51°22.358 3°10.183 247.7 10.5 250 16.3
2008-08-18 14:28:46 51°22.298 3°9.922 248.1 10.5 250 15.9
2008-08-18 14:29:46 51°22.233 3°9.66 245.7 10.7 247 15.5
2008-08-18 14:30:46 51°22.148 3°9.413 235.7 10.6 237 15.1
2008-08-18 14:31:46 51°22.049 3°9.18 235.1 10.7 236 14.6
2008-08-18 14:32:46 51°21.94 3°8.958 229.1 10.6 228 14
2008-08-18 14:33:46 51°21.826 3°8.745 229.6 10.6 230 13.4
2008-08-18 14:34:45 51°21.716 3°8.531 230.6 10.7 231 12.8
2008-08-18 14:35:46 51°21.603 3°8.305 230.7 10.7 231 12.3
2008-08-18 14:36:46 51°21.495 3°8.079 233.3 10.8 235 11.9
2008-08-18 14:37:46 51°21.391 3°7.844 231.5 10.8 232 11.4
2008-08-18 14:38:46 51°21.279 3°7.618 231.8 10.9 234 11
2008-08-18 14:39:46 51°21.165 3°7.392 230.1 10.9 232 10.5
2008-08-18 14:40:46 51°21.054 3°7.167 230.8 10.7 232 10.1
2008-08-18 14:41:46 51°20.945 3°6.944 231 10.6 232 9.9
2008-08-18 14:42:46 51°20.841 3°6.713 234 10.8 235 9.8
2008-08-18 14:43:46 51°20.739 3°6.48 233.1 10.7 235 9.7
2008-08-18 14:44:46 51°20.636 3°6.252 232.5 10.6 234 9.7
2008-08-18 14:45:46 51°20.525 3°6.033 228.8 10.6 230 9.7
2008-08-18 14:46:46 51°20.413 3°5.817 230.2 10.6 231 9.8
2008-08-18 14:47:46 51°20.304 3°5.596 231.1 10.6 232 9.8
2008-08-18 14:48:46 51°20.199 3°5.365 233.8 10.8 236 9.8
2008-08-18 14:49:46 51°20.094 3°5.13 233.2 10.9 235 9.9
2008-08-18 14:50:46 51°19.988 3°4.898 232.4 10.8 233 9.9
2008-08-18 14:51:46 51°19.875 3°4.673 228.9 10.8 229 10
2008-08-18 14:52:45 51°19.76 3°4.459 229.1 10.8 230 10.2
2008-08-18 14:53:46 51°19.644 3°4.232 229.6 10.9 230 10.2
2008-08-18 14:54:46 51°19.53 3°4.008 230.7 10.8 232 10.2
2008-08-18 14:55:46 51°19.419 3°3.783 231 10.8 232 10.3
2008-08-18 14:56:46 51°19.312 3°3.552 234.4 10.9 235 10.2
2008-08-18 14:57:46 51°19.208 3°3.313 233.8 10.9 235 10.2
2008-08-18 14:58:46 51°19.101 3°3.081 232.2 10.8 233 10.1
2008-08-18 14:59:46 51°18.991 3°2.848 231.8 11 232 10.1
2008-08-18 15:00:46 51°18.881 3°2.616 232.3 11 233 10
2008-08-18 15:01:46 51°18.77 3°2.385 231.9 10.9 232 10.2
2008-08-18 15:02:46 51°18.66 3°2.154 232.9 10.9 235 10
2008-08-18 15:03:46 51°18.561 3°1.911 235.1 10.9 236 9.9
2008-08-18 15:04:46 51°18.465 3°1.665 237.3 11 239 9.8
2008-08-18 15:05:46 51°18.372 3°1.415 238.3 11 240 9.7
2008-08-18 15:06:46 51°18.286 3°1.158 242.1 11 243 9.6
2008-08-18 15:07:46 51°18.202 3°0.898 240.8 11 242 9.7
2008-08-18 15:08:46 51°18.117 3°0.638 240.7 11.1 242 9.7
2008-08-18 15:09:46 51°18.029 3°0.379 240.4 11.1 242 9.8
2008-08-18 15:10:46 51°17.942 3°0.121 240.1 11.1 242 9.5
2008-08-18 15:11:46 51°17.853 2°59.865 239.6 11 241 9.4
2008-08-18 15:12:46 51°17.764 2°59.609 239.8 11.1 241 9.7
2008-08-18 15:13:46 51°17.674 2°59.356 238.6 10.8 240 9.7
2008-08-18 15:14:46 51°17.586 2°59.107 240 10.8 242 9.7
2008-08-18 15:15:46 51°17.498 2°58.858 238.2 10.7 239 9.8
2008-08-18 15:16:46 51°17.408 2°58.613 241.8 10.8 246 10
2008-08-18 15:17:46 51°17.34 2°58.348 246 10.8 248 10.1
2008-08-18 15:18:46 51°17.272 2°58.082 243.5 10.8 245 9.5
2008-08-18 15:19:46 51°17.191 2°57.826 243.2 10.9 245 10.1
2008-08-18 15:20:46 51°17.114 2°57.566 243 10.8 245 10.4
2008-08-18 15:21:46 51°17.036 2°57.306 242.2 10.9 244 10.9
2008-08-18 15:22:46 51°16.949 2°57.055 239.2 10.8 241 11.3
2008-08-18 15:23:46 51°16.866 2°56.801 242 10.8 244 11.6
2008-08-18 15:24:46 51°16.791 2°56.541 246 10.9 248 12
2008-08-18 15:25:46 51°16.727 2°56.271 246.8 10.8 249 11.7
2008-08-18 15:26:46 51°16.67 2°55.998 249.5 10.9 252 11.7
2008-08-18 15:27:46 51°16.608 2°55.726 245.2 10.8 247 11.8
2008-08-18 15:28:46 51°16.54 2°55.458 246.2 10.9 248 12.1
2008-08-18 15:29:46 51°16.467 2°55.193 243.2 10.9 245 12.4
2008-08-18 15:30:46 51°16.401 2°54.922 247.4 11 249 12.3
2008-08-18 15:31:46 51°16.342 2°54.664 246 8.8 248 12.5
2008-08-18 15:32:46 51°16.299 2°54.503 241.9 4.5 245 12.8
2008-08-18 15:33:46 51°16.276 2°54.425 243.9 2.5 250 12.9
2008-08-18 15:34:46 51°16.271 2°54.378 254.2 1.3 270 12.9
2008-08-18 15:35:46 51°16.274 2°54.354 258 0.7 296 13
2008-08-18 15:36:46 51°16.28 2°54.343 262 0.6 333 13
2008-08-18 15:37:46 51°16.29 2°54.343 269.4 0.7 6 12.9
2008-08-18 15:38:46 51°16.302 2°54.35 280.9 0.9 30 12.8
2008-08-18 15:39:46 51°16.317 2°54.364 298.8 1.1 35 12.9
2008-08-18 15:40:46 51°16.332 2°54.383 318 1.2 39 12.8
2008-08-18 15:41:46 51°16.347 2°54.404 334.5 1.2 44 12.9
2008-08-18 15:42:46 51°16.36 2°54.426 346 1.1 48 12.8
2008-08-18 15:43:46 51°16.374 2°54.45 353.4 1.2 47 12.9
2008-08-18 15:44:46 51°16.411 2°54.428 294.9 3.8 300 12.7
2008-08-18 15:45:46 51°16.374 2°54.36 190.5 5.3 181 12.7
2008-08-18 15:46:46 51°16.22 2°54.38 177.1 11.1 177 12.6
2008-08-18 15:47:46 51°16.029 2°54.399 179 11.6 180 12.5
2008-08-18 15:48:46 51°15.836 2°54.407 179.8 11.6 179 11.9
2008-08-18 15:49:46 51°15.642 2°54.426 177 11.6 175 11.6
2008-08-18 15:50:46 51°15.451 2°54.461 173.4 11.6 173 10.9
2008-08-18 15:51:46 51°15.261 2°54.504 174.1 11.5 174 10.1
2008-08-18 15:52:46 51°15.071 2°54.553 170.5 11.6 167 9.9
2008-08-18 15:53:46 51°14.887 2°54.646 163.5 11.6 160 10.9
2008-08-18 15:54:46 51°14.705 2°54.763 159.8 11.9 158 10.8
2008-08-18 15:55:46 51°14.528 2°54.904 154.1 11.9 151 11.2
2008-08-18 15:56:46 51°14.364 2°55.08 138.5 11.8 139 12.1